sensor_id;sensor_type;location;lat;lon;timestamp;P1;durP1;ratioP1;P2;durP2;ratioP2
32216;SDS011;67098;51.140;4.088;2023-10-08T00:02:24;10.88;;;4.03;;
32216;SDS011;67098;51.140;4.088;2023-10-08T00:04:51;10.15;;;3.58;;
32216;SDS011;67098;51.140;4.088;2023-10-08T00:07:17;8.73;;;3.95;;
32216;SDS011;67098;51.140;4.088;2023-10-08T00:09:47;12.55;;;3.60;;
32216;SDS011;67098;51.140;4.088;2023-10-08T00:12:14;12.88;;;3.85;;
32216;SDS011;67098;51.140;4.088;2023-10-08T00:14:41;8.88;;;3.67;;
32216;SDS011;67098;51.140;4.088;2023-10-08T00:17:12;10.20;;;3.97;;
32216;SDS011;67098;51.140;4.088;2023-10-08T00:19:38;10.60;;;3.88;;
32216;SDS011;67098;51.140;4.088;2023-10-08T00:22:05;9.55;;;4.25;;
32216;SDS011;67098;51.140;4.088;2023-10-08T00:24:32;12.73;;;3.83;;
32216;SDS011;67098;51.140;4.088;2023-10-08T00:26:59;8.68;;;3.60;;
32216;SDS011;67098;51.140;4.088;2023-10-08T00:29:25;8.07;;;3.60;;
32216;SDS011;67098;51.140;4.088;2023-10-08T00:31:51;10.10;;;3.58;;
32216;SDS011;67098;51.140;4.088;2023-10-08T00:34:21;12.52;;;3.70;;
32216;SDS011;67098;51.140;4.088;2023-10-08T00:36:50;12.43;;;3.72;;
32216;SDS011;67098;51.140;4.088;2023-10-08T00:39:16;10.45;;;3.97;;
32216;SDS011;67098;51.140;4.088;2023-10-08T00:41:49;10.35;;;3.67;;
32216;SDS011;67098;51.140;4.088;2023-10-08T00:44:16;7.85;;;3.53;;
32216;SDS011;67098;51.140;4.088;2023-10-08T00:46:51;11.90;;;3.35;;
32216;SDS011;67098;51.140;4.088;2023-10-08T00:49:21;11.85;;;4.15;;
32216;SDS011;67098;51.140;4.088;2023-10-08T00:52:12;10.27;;;3.90;;
32216;SDS011;67098;51.140;4.088;2023-10-08T00:54:39;10.68;;;4.22;;
32216;SDS011;67098;51.140;4.088;2023-10-08T00:57:28;10.98;;;4.35;;
32216;SDS011;67098;51.140;4.088;2023-10-08T00:59:55;11.55;;;4.13;;
32216;SDS011;67098;51.140;4.088;2023-10-08T01:02:27;10.07;;;3.92;;
32216;SDS011;67098;51.140;4.088;2023-10-08T01:05:09;13.48;;;4.22;;
32216;SDS011;67098;51.140;4.088;2023-10-08T01:07:37;11.25;;;4.10;;
32216;SDS011;67098;51.140;4.088;2023-10-08T01:10:05;12.70;;;3.80;;
32216;SDS011;67098;51.140;4.088;2023-10-08T01:12:35;10.38;;;4.10;;
32216;SDS011;67098;51.140;4.088;2023-10-08T01:15:19;12.40;;;3.88;;
32216;SDS011;67098;51.140;4.088;2023-10-08T01:17:51;11.03;;;3.73;;
32216;SDS011;67098;51.140;4.088;2023-10-08T01:20:23;9.93;;;3.90;;
32216;SDS011;67098;51.140;4.088;2023-10-08T01:22:58;11.05;;;3.78;;
32216;SDS011;67098;51.140;4.088;2023-10-08T01:25:28;13.25;;;4.25;;
32216;SDS011;67098;51.140;4.088;2023-10-08T01:27:57;14.30;;;4.15;;
32216;SDS011;67098;51.140;4.088;2023-10-08T01:30:26;9.52;;;3.70;;
32216;SDS011;67098;51.140;4.088;2023-10-08T01:33:00;13.77;;;4.68;;
32216;SDS011;67098;51.140;4.088;2023-10-08T01:35:28;19.23;;;4.18;;
32216;SDS011;67098;51.140;4.088;2023-10-08T01:37:57;11.55;;;4.45;;
32216;SDS011;67098;51.140;4.088;2023-10-08T01:40:24;9.50;;;4.18;;
32216;SDS011;67098;51.140;4.088;2023-10-08T01:42:51;10.65;;;4.30;;
32216;SDS011;67098;51.140;4.088;2023-10-08T01:45:18;10.15;;;4.78;;
32216;SDS011;67098;51.140;4.088;2023-10-08T01:47:44;9.80;;;4.60;;
32216;SDS011;67098;51.140;4.088;2023-10-08T01:50:10;8.98;;;3.70;;
32216;SDS011;67098;51.140;4.088;2023-10-08T01:52:53;12.43;;;4.25;;
32216;SDS011;67098;51.140;4.088;2023-10-08T01:55:18;10.18;;;4.05;;
32216;SDS011;67098;51.140;4.088;2023-10-08T01:57:48;11.60;;;4.47;;
32216;SDS011;67098;51.140;4.088;2023-10-08T02:00:17;11.50;;;4.13;;
32216;SDS011;67098;51.140;4.088;2023-10-08T02:02:49;7.82;;;3.70;;
32216;SDS011;67098;51.140;4.088;2023-10-08T02:05:15;10.38;;;4.65;;
32216;SDS011;67098;51.140;4.088;2023-10-08T02:07:44;9.95;;;4.50;;
32216;SDS011;67098;51.140;4.088;2023-10-08T02:10:10;13.55;;;4.38;;
32216;SDS011;67098;51.140;4.088;2023-10-08T02:12:38;15.70;;;4.43;;
32216;SDS011;67098;51.140;4.088;2023-10-08T02:15:05;13.43;;;4.60;;
32216;SDS011;67098;51.140;4.088;2023-10-08T02:17:32;12.90;;;4.25;;
32216;SDS011;67098;51.140;4.088;2023-10-08T02:19:58;10.82;;;4.57;;
32216;SDS011;67098;51.140;4.088;2023-10-08T02:22:24;9.35;;;4.30;;
32216;SDS011;67098;51.140;4.088;2023-10-08T02:24:50;12.25;;;4.95;;
32216;SDS011;67098;51.140;4.088;2023-10-08T02:27:18;15.52;;;4.82;;
32216;SDS011;67098;51.140;4.088;2023-10-08T02:29:44;9.35;;;4.95;;
32216;SDS011;67098;51.140;4.088;2023-10-08T02:32:10;13.77;;;4.75;;
32216;SDS011;67098;51.140;4.088;2023-10-08T02:34:35;13.32;;;4.70;;
32216;SDS011;67098;51.140;4.088;2023-10-08T02:37:01;13.00;;;4.57;;
32216;SDS011;67098;51.140;4.088;2023-10-08T02:39:28;10.48;;;4.78;;
32216;SDS011;67098;51.140;4.088;2023-10-08T02:41:57;8.98;;;4.93;;
32216;SDS011;67098;51.140;4.088;2023-10-08T02:44:26;11.77;;;4.18;;
32216;SDS011;67098;51.140;4.088;2023-10-08T02:46:52;12.30;;;5.05;;
32216;SDS011;67098;51.140;4.088;2023-10-08T02:49:18;13.15;;;5.65;;
32216;SDS011;67098;51.140;4.088;2023-10-08T02:51:46;12.60;;;5.57;;
32216;SDS011;67098;51.140;4.088;2023-10-08T02:54:15;12.27;;;5.07;;
32216;SDS011;67098;51.140;4.088;2023-10-08T02:56:50;11.98;;;5.30;;
32216;SDS011;67098;51.140;4.088;2023-10-08T02:59:17;14.07;;;6.20;;
32216;SDS011;67098;51.140;4.088;2023-10-08T03:01:46;12.45;;;5.53;;
32216;SDS011;67098;51.140;4.088;2023-10-08T03:04:14;10.73;;;4.75;;
32216;SDS011;67098;51.140;4.088;2023-10-08T03:06:47;13.48;;;5.60;;
32216;SDS011;67098;51.140;4.088;2023-10-08T03:09:16;14.07;;;4.85;;
32216;SDS011;67098;51.140;4.088;2023-10-08T03:11:50;15.43;;;5.20;;
32216;SDS011;67098;51.140;4.088;2023-10-08T03:14:18;15.23;;;5.40;;
32216;SDS011;67098;51.140;4.088;2023-10-08T03:16:50;17.02;;;5.53;;
32216;SDS011;67098;51.140;4.088;2023-10-08T03:19:18;17.90;;;5.78;;
32216;SDS011;67098;51.140;4.088;2023-10-08T03:21:48;10.32;;;4.82;;
32216;SDS011;67098;51.140;4.088;2023-10-08T03:24:16;13.95;;;5.30;;
32216;SDS011;67098;51.140;4.088;2023-10-08T03:27:09;13.23;;;4.93;;
32216;SDS011;67098;51.140;4.088;2023-10-08T03:29:45;14.27;;;5.63;;
32216;SDS011;67098;51.140;4.088;2023-10-08T03:32:14;15.60;;;5.18;;
32216;SDS011;67098;51.140;4.088;2023-10-08T03:34:46;12.35;;;5.35;;
32216;SDS011;67098;51.140;4.088;2023-10-08T03:37:14;12.05;;;5.40;;
32216;SDS011;67098;51.140;4.088;2023-10-08T03:39:54;17.25;;;5.10;;
32216;SDS011;67098;51.140;4.088;2023-10-08T03:42:48;13.52;;;6.03;;
32216;SDS011;67098;51.140;4.088;2023-10-08T03:45:15;17.58;;;5.80;;
32216;SDS011;67098;51.140;4.088;2023-10-08T03:47:48;13.77;;;5.60;;
32216;SDS011;67098;51.140;4.088;2023-10-08T03:50:29;15.38;;;5.35;;
32216;SDS011;67098;51.140;4.088;2023-10-08T03:53:08;11.57;;;5.00;;
32216;SDS011;67098;51.140;4.088;2023-10-08T03:55:40;13.50;;;4.88;;
32216;SDS011;67098;51.140;4.088;2023-10-08T03:58:06;13.93;;;4.85;;
32216;SDS011;67098;51.140;4.088;2023-10-08T04:00:38;15.73;;;5.60;;
32216;SDS011;67098;51.140;4.088;2023-10-08T04:03:07;14.27;;;5.53;;
32216;SDS011;67098;51.140;4.088;2023-10-08T04:05:36;17.52;;;6.20;;
32216;SDS011;67098;51.140;4.088;2023-10-08T04:08:21;14.23;;;5.07;;
32216;SDS011;67098;51.140;4.088;2023-10-08T04:11:08;14.30;;;4.57;;
32216;SDS011;67098;51.140;4.088;2023-10-08T04:13:53;13.88;;;5.63;;
32216;SDS011;67098;51.140;4.088;2023-10-08T04:16:18;13.52;;;5.13;;
32216;SDS011;67098;51.140;4.088;2023-10-08T04:18:46;16.67;;;5.40;;
32216;SDS011;67098;51.140;4.088;2023-10-08T04:21:16;13.68;;;5.20;;
32216;SDS011;67098;51.140;4.088;2023-10-08T04:23:45;12.63;;;5.53;;
32216;SDS011;67098;51.140;4.088;2023-10-08T04:26:16;14.25;;;5.40;;
32216;SDS011;67098;51.140;4.088;2023-10-08T04:28:54;15.75;;;5.70;;
32216;SDS011;67098;51.140;4.088;2023-10-08T04:31:26;17.73;;;5.88;;
32216;SDS011;67098;51.140;4.088;2023-10-08T04:34:02;17.00;;;6.03;;
32216;SDS011;67098;51.140;4.088;2023-10-08T04:36:36;14.98;;;5.85;;
32216;SDS011;67098;51.140;4.088;2023-10-08T04:39:04;18.25;;;5.85;;
32216;SDS011;67098;51.140;4.088;2023-10-08T04:41:41;12.98;;;6.00;;
32216;SDS011;67098;51.140;4.088;2023-10-08T04:44:10;15.23;;;6.32;;
32216;SDS011;67098;51.140;4.088;2023-10-08T04:46:44;13.23;;;5.82;;
32216;SDS011;67098;51.140;4.088;2023-10-08T04:49:17;14.13;;;6.18;;
32216;SDS011;67098;51.140;4.088;2023-10-08T04:51:46;16.27;;;6.28;;
32216;SDS011;67098;51.140;4.088;2023-10-08T04:54:14;13.45;;;5.82;;
32216;SDS011;67098;51.140;4.088;2023-10-08T04:56:43;14.50;;;6.30;;
32216;SDS011;67098;51.140;4.088;2023-10-08T04:59:09;15.65;;;6.20;;
32216;SDS011;67098;51.140;4.088;2023-10-08T05:01:38;17.67;;;6.47;;
32216;SDS011;67098;51.140;4.088;2023-10-08T05:04:06;16.45;;;6.40;;
32216;SDS011;67098;51.140;4.088;2023-10-08T05:06:46;14.77;;;6.23;;
32216;SDS011;67098;51.140;4.088;2023-10-08T05:09:12;15.38;;;6.60;;
32216;SDS011;67098;51.140;4.088;2023-10-08T05:11:48;16.35;;;6.72;;
32216;SDS011;67098;51.140;4.088;2023-10-08T05:14:16;14.02;;;6.25;;
32216;SDS011;67098;51.140;4.088;2023-10-08T05:17:01;15.27;;;6.55;;
32216;SDS011;67098;51.140;4.088;2023-10-08T05:19:43;16.25;;;6.68;;
32216;SDS011;67098;51.140;4.088;2023-10-08T05:22:27;14.63;;;6.75;;
32216;SDS011;67098;51.140;4.088;2023-10-08T05:24:53;15.93;;;6.97;;
32216;SDS011;67098;51.140;4.088;2023-10-08T05:27:45;19.05;;;7.13;;
32216;SDS011;67098;51.140;4.088;2023-10-08T05:30:17;14.15;;;6.80;;
32216;SDS011;67098;51.140;4.088;2023-10-08T05:33:18;14.18;;;6.63;;
32216;SDS011;67098;51.140;4.088;2023-10-08T05:35:45;17.80;;;6.28;;
32216;SDS011;67098;51.140;4.088;2023-10-08T05:38:18;17.95;;;6.60;;
32216;SDS011;67098;51.140;4.088;2023-10-08T05:40:59;13.77;;;6.93;;
32216;SDS011;67098;51.140;4.088;2023-10-08T05:43:33;12.35;;;6.75;;
32216;SDS011;67098;51.140;4.088;2023-10-08T05:48:50;16.83;;;6.65;;
32216;SDS011;67098;51.140;4.088;2023-10-08T05:51:29;15.13;;;6.57;;
32216;SDS011;67098;51.140;4.088;2023-10-08T05:54:11;17.38;;;7.10;;
32216;SDS011;67098;51.140;4.088;2023-10-08T05:57:02;16.45;;;7.35;;
32216;SDS011;67098;51.140;4.088;2023-10-08T05:59:49;17.85;;;7.22;;
32216;SDS011;67098;51.140;4.088;2023-10-08T06:04:56;19.98;;;7.07;;
32216;SDS011;67098;51.140;4.088;2023-10-08T06:07:42;17.77;;;7.00;;
32216;SDS011;67098;51.140;4.088;2023-10-08T06:10:18;20.00;;;7.68;;
32216;SDS011;67098;51.140;4.088;2023-10-08T06:12:58;17.08;;;6.75;;
32216;SDS011;67098;51.140;4.088;2023-10-08T06:18:24;15.65;;;6.38;;
32216;SDS011;67098;51.140;4.088;2023-10-08T06:21:03;17.25;;;6.95;;
32216;SDS011;67098;51.140;4.088;2023-10-08T06:23:34;16.83;;;6.57;;
32216;SDS011;67098;51.140;4.088;2023-10-08T06:26:01;14.80;;;6.78;;
32216;SDS011;67098;51.140;4.088;2023-10-08T06:28:42;20.17;;;7.65;;
32216;SDS011;67098;51.140;4.088;2023-10-08T06:31:09;13.30;;;6.35;;
32216;SDS011;67098;51.140;4.088;2023-10-08T06:33:42;14.38;;;5.97;;
32216;SDS011;67098;51.140;4.088;2023-10-08T06:36:09;16.30;;;6.88;;
32216;SDS011;67098;51.140;4.088;2023-10-08T06:38:41;13.13;;;6.97;;
32216;SDS011;67098;51.140;4.088;2023-10-08T06:41:08;13.25;;;6.55;;
32216;SDS011;67098;51.140;4.088;2023-10-08T06:43:38;22.90;;;6.75;;
32216;SDS011;67098;51.140;4.088;2023-10-08T06:46:05;18.42;;;6.82;;
32216;SDS011;67098;51.140;4.088;2023-10-08T06:48:40;13.52;;;6.32;;
32216;SDS011;67098;51.140;4.088;2023-10-08T06:51:08;19.25;;;7.45;;
32216;SDS011;67098;51.140;4.088;2023-10-08T06:53:47;13.82;;;6.47;;
32216;SDS011;67098;51.140;4.088;2023-10-08T06:56:14;14.00;;;6.63;;
32216;SDS011;67098;51.140;4.088;2023-10-08T06:58:41;14.82;;;6.78;;
32216;SDS011;67098;51.140;4.088;2023-10-08T07:01:16;17.08;;;5.97;;
32216;SDS011;67098;51.140;4.088;2023-10-08T07:03:50;15.65;;;7.10;;
32216;SDS011;67098;51.140;4.088;2023-10-08T07:06:19;14.25;;;6.65;;
32216;SDS011;67098;51.140;4.088;2023-10-08T07:08:51;16.25;;;7.13;;
32216;SDS011;67098;51.140;4.088;2023-10-08T07:11:21;16.50;;;6.13;;
32216;SDS011;67098;51.140;4.088;2023-10-08T07:13:47;20.92;;;7.18;;
32216;SDS011;67098;51.140;4.088;2023-10-08T07:16:13;17.85;;;7.47;;
32216;SDS011;67098;51.140;4.088;2023-10-08T07:18:42;17.58;;;6.80;;
32216;SDS011;67098;51.140;4.088;2023-10-08T07:21:20;16.08;;;6.57;;
32216;SDS011;67098;51.140;4.088;2023-10-08T07:23:57;16.52;;;7.25;;
32216;SDS011;67098;51.140;4.088;2023-10-08T07:26:27;28.50;;;7.53;;
32216;SDS011;67098;51.140;4.088;2023-10-08T07:29:01;15.38;;;7.65;;
32216;SDS011;67098;51.140;4.088;2023-10-08T07:31:34;21.00;;;7.65;;
32216;SDS011;67098;51.140;4.088;2023-10-08T07:34:02;16.33;;;7.05;;
32216;SDS011;67098;51.140;4.088;2023-10-08T07:36:49;15.77;;;6.65;;
32216;SDS011;67098;51.140;4.088;2023-10-08T07:39:16;18.92;;;7.50;;
32216;SDS011;67098;51.140;4.088;2023-10-08T07:41:49;17.80;;;8.02;;
32216;SDS011;67098;51.140;4.088;2023-10-08T07:44:16;21.80;;;8.25;;
32216;SDS011;67098;51.140;4.088;2023-10-08T07:46:46;18.60;;;7.70;;
32216;SDS011;67098;51.140;4.088;2023-10-08T07:49:24;15.13;;;7.53;;
32216;SDS011;67098;51.140;4.088;2023-10-08T07:51:53;21.80;;;7.95;;
32216;SDS011;67098;51.140;4.088;2023-10-08T07:54:23;19.75;;;7.72;;
32216;SDS011;67098;51.140;4.088;2023-10-08T07:56:53;14.90;;;8.18;;
32216;SDS011;67098;51.140;4.088;2023-10-08T07:59:25;21.20;;;8.00;;
32216;SDS011;67098;51.140;4.088;2023-10-08T08:01:51;20.10;;;8.00;;
32216;SDS011;67098;51.140;4.088;2023-10-08T08:04:18;17.45;;;7.57;;
32216;SDS011;67098;51.140;4.088;2023-10-08T08:06:50;19.90;;;8.32;;
32216;SDS011;67098;51.140;4.088;2023-10-08T08:09:17;21.77;;;8.00;;
32216;SDS011;67098;51.140;4.088;2023-10-08T08:11:48;19.65;;;8.07;;
32216;SDS011;67098;51.140;4.088;2023-10-08T08:14:15;17.95;;;8.35;;
32216;SDS011;67098;51.140;4.088;2023-10-08T08:16:50;20.50;;;8.63;;
32216;SDS011;67098;51.140;4.088;2023-10-08T08:19:16;18.10;;;7.60;;
32216;SDS011;67098;51.140;4.088;2023-10-08T08:21:49;17.00;;;7.50;;
32216;SDS011;67098;51.140;4.088;2023-10-08T08:24:17;15.45;;;7.55;;
32216;SDS011;67098;51.140;4.088;2023-10-08T08:26:56;18.67;;;7.50;;
32216;SDS011;67098;51.140;4.088;2023-10-08T08:29:37;13.60;;;7.22;;
32216;SDS011;67098;51.140;4.088;2023-10-08T08:32:13;16.40;;;7.47;;
32216;SDS011;67098;51.140;4.088;2023-10-08T08:34:44;18.17;;;8.02;;
32216;SDS011;67098;51.140;4.088;2023-10-08T08:37:12;17.33;;;7.07;;
32216;SDS011;67098;51.140;4.088;2023-10-08T08:39:38;12.40;;;6.88;;
32216;SDS011;67098;51.140;4.088;2023-10-08T08:42:06;22.83;;;8.68;;
32216;SDS011;67098;51.140;4.088;2023-10-08T08:44:37;25.10;;;8.88;;
32216;SDS011;67098;51.140;4.088;2023-10-08T08:47:04;21.65;;;8.93;;
32216;SDS011;67098;51.140;4.088;2023-10-08T08:49:35;17.85;;;8.10;;
32216;SDS011;67098;51.140;4.088;2023-10-08T08:52:04;19.27;;;7.47;;
32216;SDS011;67098;51.140;4.088;2023-10-08T08:54:30;17.52;;;7.18;;
32216;SDS011;67098;51.140;4.088;2023-10-08T08:56:57;16.85;;;8.10;;
32216;SDS011;67098;51.140;4.088;2023-10-08T08:59:25;24.08;;;8.57;;
32216;SDS011;67098;51.140;4.088;2023-10-08T09:01:52;19.45;;;8.65;;
32216;SDS011;67098;51.140;4.088;2023-10-08T09:04:27;25.05;;;8.98;;
32216;SDS011;67098;51.140;4.088;2023-10-08T09:06:55;17.95;;;8.23;;
32216;SDS011;67098;51.140;4.088;2023-10-08T09:09:21;18.60;;;9.25;;
32216;SDS011;67098;51.140;4.088;2023-10-08T09:11:51;21.05;;;8.82;;
32216;SDS011;67098;51.140;4.088;2023-10-08T09:14:21;23.88;;;8.95;;
32216;SDS011;67098;51.140;4.088;2023-10-08T09:16:50;22.30;;;8.75;;
32216;SDS011;67098;51.140;4.088;2023-10-08T09:19:19;23.90;;;9.10;;
32216;SDS011;67098;51.140;4.088;2023-10-08T09:24:33;19.00;;;8.73;;
32216;SDS011;67098;51.140;4.088;2023-10-08T09:29:28;25.23;;;8.73;;
32216;SDS011;67098;51.140;4.088;2023-10-08T09:31:58;23.73;;;9.75;;
32216;SDS011;67098;51.140;4.088;2023-10-08T09:34:29;20.90;;;8.57;;
32216;SDS011;67098;51.140;4.088;2023-10-08T09:36:55;21.83;;;9.25;;
32216;SDS011;67098;51.140;4.088;2023-10-08T09:39:25;26.60;;;9.50;;
32216;SDS011;67098;51.140;4.088;2023-10-08T09:41:54;27.13;;;9.50;;
32216;SDS011;67098;51.140;4.088;2023-10-08T09:44:20;25.33;;;10.38;;
32216;SDS011;67098;51.140;4.088;2023-10-08T09:46:57;26.80;;;9.27;;
32216;SDS011;67098;51.140;4.088;2023-10-08T09:49:40;20.33;;;8.38;;
32216;SDS011;67098;51.140;4.088;2023-10-08T09:52:13;28.27;;;9.32;;
32216;SDS011;67098;51.140;4.088;2023-10-08T09:54:53;22.73;;;8.20;;
32216;SDS011;67098;51.140;4.088;2023-10-08T09:57:25;23.67;;;8.55;;
32216;SDS011;67098;51.140;4.088;2023-10-08T09:59:52;22.00;;;9.15;;
32216;SDS011;67098;51.140;4.088;2023-10-08T10:02:18;27.73;;;10.50;;
32216;SDS011;67098;51.140;4.088;2023-10-08T10:04:49;26.37;;;10.07;;
32216;SDS011;67098;51.140;4.088;2023-10-08T10:07:19;23.88;;;8.93;;
32216;SDS011;67098;51.140;4.088;2023-10-08T10:09:54;25.02;;;9.25;;
32216;SDS011;67098;51.140;4.088;2023-10-08T10:12:21;20.65;;;8.57;;
32216;SDS011;67098;51.140;4.088;2023-10-08T10:17:21;20.35;;;8.77;;
32216;SDS011;67098;51.140;4.088;2023-10-08T10:22:29;22.80;;;8.43;;
32216;SDS011;67098;51.140;4.088;2023-10-08T10:24:57;26.58;;;9.15;;
32216;SDS011;67098;51.140;4.088;2023-10-08T10:27:28;22.88;;;9.32;;
32216;SDS011;67098;51.140;4.088;2023-10-08T10:30:04;24.98;;;8.68;;
32216;SDS011;67098;51.140;4.088;2023-10-08T10:32:36;22.25;;;9.18;;
32216;SDS011;67098;51.140;4.088;2023-10-08T10:35:02;23.02;;;9.25;;
32216;SDS011;67098;51.140;4.088;2023-10-08T10:37:32;20.73;;;8.95;;
32216;SDS011;67098;51.140;4.088;2023-10-08T10:40:06;22.33;;;9.55;;
32216;SDS011;67098;51.140;4.088;2023-10-08T10:42:37;25.58;;;9.45;;
32216;SDS011;67098;51.140;4.088;2023-10-08T10:45:16;23.58;;;9.35;;
32216;SDS011;67098;51.140;4.088;2023-10-08T10:48:01;18.27;;;7.78;;
32216;SDS011;67098;51.140;4.088;2023-10-08T10:50:41;25.65;;;9.27;;
32216;SDS011;67098;51.140;4.088;2023-10-08T10:53:42;21.73;;;9.07;;
32216;SDS011;67098;51.140;4.088;2023-10-08T10:56:26;22.60;;;9.30;;
32216;SDS011;67098;51.140;4.088;2023-10-08T10:59:01;18.77;;;8.65;;
32216;SDS011;67098;51.140;4.088;2023-10-08T11:01:52;16.33;;;7.25;;
32216;SDS011;67098;51.140;4.088;2023-10-08T11:04:30;21.00;;;8.73;;
32216;SDS011;67098;51.140;4.088;2023-10-08T11:06:56;17.88;;;8.27;;
32216;SDS011;67098;51.140;4.088;2023-10-08T11:09:24;15.70;;;7.57;;
32216;SDS011;67098;51.140;4.088;2023-10-08T11:12:04;19.88;;;8.00;;
32216;SDS011;67098;51.140;4.088;2023-10-08T11:14:39;22.45;;;7.88;;
32216;SDS011;67098;51.140;4.088;2023-10-08T11:17:11;22.13;;;7.57;;
32216;SDS011;67098;51.140;4.088;2023-10-08T11:19:44;19.00;;;8.52;;
32216;SDS011;67098;51.140;4.088;2023-10-08T11:22:16;19.83;;;7.63;;
32216;SDS011;67098;51.140;4.088;2023-10-08T11:24:46;19.15;;;7.13;;
32216;SDS011;67098;51.140;4.088;2023-10-08T11:27:16;18.27;;;7.80;;
32216;SDS011;67098;51.140;4.088;2023-10-08T11:29:53;21.30;;;8.00;;
32216;SDS011;67098;51.140;4.088;2023-10-08T11:32:23;20.77;;;7.33;;
32216;SDS011;67098;51.140;4.088;2023-10-08T11:34:57;19.40;;;7.63;;
32216;SDS011;67098;51.140;4.088;2023-10-08T11:37:44;21.42;;;8.30;;
32216;SDS011;67098;51.140;4.088;2023-10-08T11:40:21;20.35;;;7.57;;
32216;SDS011;67098;51.140;4.088;2023-10-08T11:42:54;22.55;;;7.15;;
32216;SDS011;67098;51.140;4.088;2023-10-08T11:47:52;15.45;;;6.97;;
32216;SDS011;67098;51.140;4.088;2023-10-08T11:50:27;22.33;;;7.75;;
32216;SDS011;67098;51.140;4.088;2023-10-08T11:52:57;18.90;;;7.43;;
32216;SDS011;67098;51.140;4.088;2023-10-08T11:55:31;19.88;;;8.77;;
32216;SDS011;67098;51.140;4.088;2023-10-08T11:58:04;20.98;;;7.68;;
32216;SDS011;67098;51.140;4.088;2023-10-08T12:00:38;18.17;;;7.90;;
32216;SDS011;67098;51.140;4.088;2023-10-08T12:03:10;22.85;;;7.30;;
32216;SDS011;67098;51.140;4.088;2023-10-08T12:05:43;17.92;;;7.63;;
32216;SDS011;67098;51.140;4.088;2023-10-08T12:08:15;23.67;;;7.90;;
32216;SDS011;67098;51.140;4.088;2023-10-08T12:10:43;18.15;;;6.88;;
32216;SDS011;67098;51.140;4.088;2023-10-08T12:13:09;21.08;;;7.63;;
32216;SDS011;67098;51.140;4.088;2023-10-08T12:15:35;19.08;;;7.13;;
32216;SDS011;67098;51.140;4.088;2023-10-08T12:18:06;18.08;;;6.70;;
32216;SDS011;67098;51.140;4.088;2023-10-08T12:20:40;18.70;;;6.57;;
32216;SDS011;67098;51.140;4.088;2023-10-08T12:23:09;16.08;;;6.43;;
32216;SDS011;67098;51.140;4.088;2023-10-08T12:25:36;14.85;;;6.18;;
32216;SDS011;67098;51.140;4.088;2023-10-08T12:28:02;16.05;;;6.35;;
32216;SDS011;67098;51.140;4.088;2023-10-08T12:30:30;15.85;;;6.93;;
32216;SDS011;67098;51.140;4.088;2023-10-08T12:32:56;17.35;;;7.55;;
32216;SDS011;67098;51.140;4.088;2023-10-08T12:35:25;19.38;;;6.90;;
32216;SDS011;67098;51.140;4.088;2023-10-08T12:37:52;21.48;;;7.47;;
32216;SDS011;67098;51.140;4.088;2023-10-08T12:40:19;18.95;;;6.90;;
32216;SDS011;67098;51.140;4.088;2023-10-08T12:42:48;18.10;;;6.38;;
32216;SDS011;67098;51.140;4.088;2023-10-08T12:45:17;18.70;;;7.15;;
32216;SDS011;67098;51.140;4.088;2023-10-08T12:47:49;15.23;;;6.38;;
32216;SDS011;67098;51.140;4.088;2023-10-08T12:50:17;16.45;;;7.20;;
32216;SDS011;67098;51.140;4.088;2023-10-08T12:52:54;15.02;;;6.45;;
32216;SDS011;67098;51.140;4.088;2023-10-08T12:55:21;19.95;;;7.57;;
32216;SDS011;67098;51.140;4.088;2023-10-08T12:57:53;12.90;;;6.55;;
32216;SDS011;67098;51.140;4.088;2023-10-08T13:00:21;19.10;;;7.35;;
32216;SDS011;67098;51.140;4.088;2023-10-08T13:02:51;19.45;;;6.50;;
32216;SDS011;67098;51.140;4.088;2023-10-08T13:05:22;18.77;;;6.95;;
32216;SDS011;67098;51.140;4.088;2023-10-08T13:07:57;19.02;;;7.25;;
32216;SDS011;67098;51.140;4.088;2023-10-08T13:10:28;18.33;;;6.85;;
32216;SDS011;67098;51.140;4.088;2023-10-08T13:12:56;18.88;;;7.40;;
32216;SDS011;67098;51.140;4.088;2023-10-08T13:15:22;15.27;;;6.70;;
32216;SDS011;67098;51.140;4.088;2023-10-08T13:17:51;14.57;;;6.47;;
32216;SDS011;67098;51.140;4.088;2023-10-08T13:20:17;18.45;;;6.95;;
32216;SDS011;67098;51.140;4.088;2023-10-08T13:22:44;15.73;;;6.13;;
32216;SDS011;67098;51.140;4.088;2023-10-08T13:25:11;15.38;;;6.25;;
32216;SDS011;67098;51.140;4.088;2023-10-08T13:27:38;17.15;;;7.30;;
32216;SDS011;67098;51.140;4.088;2023-10-08T13:30:07;17.95;;;6.88;;
32216;SDS011;67098;51.140;4.088;2023-10-08T13:32:36;15.43;;;6.60;;
32216;SDS011;67098;51.140;4.088;2023-10-08T13:35:05;17.20;;;6.28;;
32216;SDS011;67098;51.140;4.088;2023-10-08T13:37:35;15.75;;;7.47;;
32216;SDS011;67098;51.140;4.088;2023-10-08T13:40:01;12.60;;;5.50;;
32216;SDS011;67098;51.140;4.088;2023-10-08T13:42:28;16.90;;;7.20;;
32216;SDS011;67098;51.140;4.088;2023-10-08T13:44:54;18.13;;;6.65;;
32216;SDS011;67098;51.140;4.088;2023-10-08T13:47:24;14.25;;;6.57;;
32216;SDS011;67098;51.140;4.088;2023-10-08T13:49:54;14.75;;;6.00;;
32216;SDS011;67098;51.140;4.088;2023-10-08T13:52:20;14.57;;;6.30;;
32216;SDS011;67098;51.140;4.088;2023-10-08T13:54:48;13.63;;;5.72;;
32216;SDS011;67098;51.140;4.088;2023-10-08T13:57:18;13.15;;;6.30;;
32216;SDS011;67098;51.140;4.088;2023-10-08T13:59:47;17.47;;;6.90;;
32216;SDS011;67098;51.140;4.088;2023-10-08T14:02:13;12.30;;;5.75;;
32216;SDS011;67098;51.140;4.088;2023-10-08T14:04:40;12.68;;;6.20;;
32216;SDS011;67098;51.140;4.088;2023-10-08T14:07:09;13.80;;;6.20;;
32216;SDS011;67098;51.140;4.088;2023-10-08T14:09:42;16.88;;;6.30;;
32216;SDS011;67098;51.140;4.088;2023-10-08T14:12:10;17.77;;;7.40;;
32216;SDS011;67098;51.140;4.088;2023-10-08T14:14:38;13.45;;;5.82;;
32216;SDS011;67098;51.140;4.088;2023-10-08T14:17:09;16.10;;;6.80;;
32216;SDS011;67098;51.140;4.088;2023-10-08T14:19:39;14.43;;;6.22;;
32216;SDS011;67098;51.140;4.088;2023-10-08T14:22:17;16.65;;;6.20;;
32216;SDS011;67098;51.140;4.088;2023-10-08T14:24:47;17.13;;;6.43;;
32216;SDS011;67098;51.140;4.088;2023-10-08T14:27:24;14.05;;;6.60;;
32216;SDS011;67098;51.140;4.088;2023-10-08T14:30:06;14.27;;;6.63;;
32216;SDS011;67098;51.140;4.088;2023-10-08T14:32:41;13.98;;;5.88;;
32216;SDS011;67098;51.140;4.088;2023-10-08T14:35:14;11.68;;;5.82;;
32216;SDS011;67098;51.140;4.088;2023-10-08T14:38:01;14.32;;;6.57;;
32216;SDS011;67098;51.140;4.088;2023-10-08T14:40:46;14.75;;;6.82;;
32216;SDS011;67098;51.140;4.088;2023-10-08T14:43:30;20.35;;;6.75;;
32216;SDS011;67098;51.140;4.088;2023-10-08T14:46:00;15.55;;;6.40;;
32216;SDS011;67098;51.140;4.088;2023-10-08T14:48:32;13.95;;;6.28;;
32216;SDS011;67098;51.140;4.088;2023-10-08T14:51:00;12.40;;;6.15;;
32216;SDS011;67098;51.140;4.088;2023-10-08T14:53:28;18.05;;;6.32;;
32216;SDS011;67098;51.140;4.088;2023-10-08T14:55:56;16.92;;;6.03;;
32216;SDS011;67098;51.140;4.088;2023-10-08T14:58:23;14.93;;;6.47;;
32216;SDS011;67098;51.140;4.088;2023-10-08T15:00:50;16.73;;;5.90;;
32216;SDS011;67098;51.140;4.088;2023-10-08T15:03:19;15.00;;;5.68;;
32216;SDS011;67098;51.140;4.088;2023-10-08T15:05:46;18.13;;;6.50;;
32216;SDS011;67098;51.140;4.088;2023-10-08T15:08:12;10.50;;;5.30;;
32216;SDS011;67098;51.140;4.088;2023-10-08T15:10:39;14.15;;;6.03;;
32216;SDS011;67098;51.140;4.088;2023-10-08T15:13:06;9.32;;;5.50;;
32216;SDS011;67098;51.140;4.088;2023-10-08T15:15:32;18.65;;;6.03;;
32216;SDS011;67098;51.140;4.088;2023-10-08T15:18:00;14.27;;;5.72;;
32216;SDS011;67098;51.140;4.088;2023-10-08T15:20:29;10.65;;;5.13;;
32216;SDS011;67098;51.140;4.088;2023-10-08T15:22:57;14.63;;;5.25;;